Flight Track Log - Related Links

Times and Time Zones

All times are in EDT time to prevent confusion due to time zone crossing. See the GLA61C flight status page for this flight to view local times or setup timezone preferences in your user account.

Time Position Orientation Groundspeed Altitude Reporting Facility
EDT Latitude Longitude Course Direction KTS MPH feet Rate Location/Type
Thu 07:57:04 AM 37.3611 -108.5722 38° Northeast 147 169 8,700  Level Denver Center
Thu 07:58:00 AM 37.6030 -108.2063 48° Northeast  Level FlightAware Approximate
Thu 07:58:04 AM 37.4028 -108.5303 39° Northeast 194 223 10,500  Level Denver Center
Thu 07:59:00 AM 37.6531 -108.1371 48° Northeast  Level FlightAware Approximate
Thu 07:59:05 AM 37.4458 -108.4861 39° Northeast 202 232 12,600  Level Denver Center
Thu 08:00:00 AM 37.7031 -108.0678 48° Northeast  Level FlightAware Approximate
Thu 08:00:05 AM 37.4878 -108.4189 52° Northeast 208 239 14,300  Level Denver Center
Thu 08:01:00 AM 37.7531 -107.9985 48° Northeast  Level FlightAware Approximate
Thu 08:01:05 AM 37.5281 -108.3481 54° Northeast 243 280 16,000  Level Denver Center
Thu 08:02:00 AM 37.8036 -107.9297 38° Northeast  Level FlightAware Approximate
Thu 08:02:06 AM 37.5767 -108.2889 44° Northeast 253 291 17,500  Level Denver Center
Thu 08:03:06 AM 37.6256 -108.2125 51° Northeast 251 289 19,200 1,450 Climbing Denver Center
Thu 08:04:06 AM 37.6725 -108.1453 49° Northeast 262 302 20,400 1,140 Climbing Denver Center
Thu 08:05:07 AM 37.7183 -108.0792 49° Northeast 261 300 21,500 1,190 Climbing Denver Center
Thu 08:06:07 AM 37.7667 -108.0139 47° Northeast 265 305 22,800 1,388 Climbing Denver Center
Thu 08:07:08 AM 37.8206 -107.9389 48° Northeast 259 298 24,300 1,041 Climbing Denver Center
Thu 08:08:08 AM 37.8661 -107.8742 48° Northeast 256 295 24,900 298 Climbing Denver Center
Thu 08:09:09 AM 37.9156 -107.7983 50° Northeast 280 322 24,900 50 Level Denver Center
Thu 08:10:09 AM 37.9822 -107.7031 48° Northeast 317 365 25,000 50 Climbing Denver Center
Thu 08:11:10 AM 38.0400 -107.6250 47° Northeast 317 365 25,000 -50 Level Denver Center
Thu 08:12:10 AM 38.1017 -107.5397 47° Northeast 318 366 24,900 -50 Descending Denver Center
Thu 08:13:11 AM 38.1561 -107.4608 49° Northeast 312 359 24,900  Level Denver Center
Thu 08:14:11 AM 38.2094 -107.3806 50° Northeast 311 358 24,900  Level Denver Center
Thu 08:15:12 AM 38.2756 -107.2950 45° Northeast 304 350 24,900  Level Denver Center
Thu 08:16:12 AM 38.3283 -107.2144 50° Northeast 308 354 24,900  Level Denver Center
Thu 08:17:13 AM 38.3883 -107.1289 48° Northeast 316 364 24,900  Level Denver Center
Thu 08:18:13 AM 38.4497 -107.0461 47° Northeast 321 369 24,900  Level Denver Center
Thu 08:19:14 AM 38.4847 -106.9383 67° East 325 374 24,900 49 Level Denver Center
Thu 08:20:15 AM 38.5247 -106.8322 64° Northeast 331 381 25,000 50 Climbing Denver Center
Thu 08:21:15 AM 38.5625 -106.7217 66° East 337 388 25,000 -50 Level Denver Center
Thu 08:22:16 AM 38.5972 -106.6147 67° East 332 382 24,900 -50 Descending Denver Center
Thu 08:23:16 AM 38.6275 -106.5025 71° East 333 383 24,900  Level Denver Center
Thu 08:24:17 AM 38.6625 -106.3928 68° East 334 384 24,900  Level Denver Center
Thu 08:25:18 AM 38.6986 -106.2842 67° East 333 383 24,900  Level Denver Center
Thu 08:26:19 AM 38.7364 -106.1725 67° East 334 384 24,900 50 Level Denver Center
Thu 08:27:19 AM 38.7722 -106.0700 66° East 331 381 25,000 50 Climbing Denver Center
Thu 08:28:20 AM 38.8289 -105.9586 57° Northeast 331 381 25,000 -197 Level Denver Center
Thu 08:29:21 AM 38.8825 -105.8628 54° Northeast 327 376 24,600 -934 Descending Denver Center
Thu 08:30:22 AM 38.9353 -105.7883 48° Northeast 320 368 23,100 -1,623 Descending Denver Center
Thu 08:31:23 AM 39.0056 -105.6944 46° Northeast 324 373 21,300 -2,115 Descending Denver Center
Thu 08:32:24 AM 39.0600 -105.6244 45° Northeast 308 354 18,800 -2,115 Descending Denver Center
Thu 08:33:25 AM 39.1186 -105.5494 45° Northeast 308 354 17,000 -1,339 Descending Denver Center
Thu 08:34:25 AM 39.1808 -105.4456 52° Northeast 320 368 16,100 -496 Descending Denver Center
Thu 08:35:26 AM 39.2275 -105.3444 59° Northeast 326 375 16,000  Descending Denver Center
Thu 08:36:27 AM 39.2878 -105.2431 52° Northeast 329 379 16,100 -492 Climbing Denver Center
Thu 08:37:28 AM 39.3442 -105.1525 51° Northeast 327 376 15,000 -1,377 Descending Denver Center
Thu 08:38:29 AM 39.4039 -105.0739 45° Northeast 309 356 13,300 -1,033 Descending Denver Center
Thu 08:39:30 AM 39.4672 -105.0017 41° Northeast 304 350 12,900 -148 Descending Denver Center
Thu 08:40:31 AM 39.5331 -104.9394 36° Northeast 292 336 13,000 98 Climbing Denver Center
Thu 08:41:32 AM 39.6056 -104.8825 31° Northeast 281 323 13,100  Climbing Denver Center
Thu 08:42:33 AM 39.6611 -104.8153 43° Northeast 282 325 13,000 -98 Descending Denver Center
Thu 08:43:34 AM 39.7186 -104.7472 42° Northeast 271 312 12,900 -541 Descending Denver Center
Thu 08:44:35 AM 39.7717 -104.6819 43° Northeast 262 302 11,900 -1,131 Descending Denver Center
Thu 08:45:36 AM 39.7744 -104.5883 88° East 244 281 10,600 -492 Descending Denver Center
Thu 08:46:37 AM 39.7697 -104.5003 94° East 244 281 10,900 -492 Climbing Denver Center
Thu 08:47:38 AM 39.7686 -104.4147 91° East 236 272 9,600 -1,180 Descending Denver Center
Thu 08:48:39 AM 39.8136 -104.3697 38° Northeast 229 264 8,500 -787 Descending Denver Center
Thu 08:49:40 AM 39.8664 -104.4036 334° Northwest 200 230 8,000 -611 Descending Denver Center
Thu 08:50:27 AM 39.8833 -104.4500 295° West 189 217 7,400 -729 Descending Denver TRACON
Thu 08:51:27 AM 39.8833 -104.5167 270° West 181 208 6,700 -750 Descending Denver TRACON
Thu 08:52:27 AM 39.8833 -104.5833 270° West 153 176 5,900 -613 Descending Denver TRACON
Thu 08:53:44 AM 39.8772 -104.6386 262° West 146 168 5,300 -468 Descending Denver Center
Thu 08:55:00 AM 39.8500 -104.6667 270° West  Level FlightAware Approximate
Thu 09:02:00 AM 39.8617 -104.6732 270° West  Level Estimated
Thu 09:03:00 AM 39.8617 -104.6732 270° West  Level Estimated

Login

Don't have an account? Register now (free) for customized features, flight alerts, and more!